createdAt,value
2023-03-11T12:14:23.658Z,2.00
2023-03-11T12:17:10.908Z,2.12
2023-03-11T12:20:08.707Z,2.27
2023-03-11T12:23:04.276Z,2.30
2023-03-11T12:26:25.246Z,2.18
2023-03-11T12:29:34.284Z,2.42
2023-03-11T12:32:42.333Z,2.46
2023-03-11T12:35:34.606Z,2.55
2023-03-11T12:38:32.849Z,2.63
2023-03-11T12:41:16.156Z,2.06
2023-03-11T12:44:21.723Z,2.51
2023-03-11T12:47:08.016Z,1.90
2023-03-11T12:50:15.829Z,2.11
2023-03-11T12:52:59.267Z,1.59
2023-03-11T12:56:19.132Z,1.82
2023-03-11T12:59:38.480Z,1.90
2023-03-11T13:03:18.528Z,1.88
2023-03-11T13:06:17.084Z,1.90
2023-03-11T13:09:01.350Z,1.86
2023-03-11T13:11:49.234Z,2.27
2023-03-11T13:14:34.162Z,2.18
2023-03-11T13:17:27.302Z,2.15
2023-03-11T13:20:41.572Z,1.91
2023-03-11T13:23:34.354Z,1.71
2023-03-11T13:26:36.259Z,1.84
2023-03-11T13:29:51.989Z,2.07
2023-03-11T13:32:57.320Z,2.23
2023-03-11T13:36:10.372Z,2.10
2023-03-11T13:39:13.225Z,1.88
2023-03-11T13:41:57.127Z,1.96
2023-03-11T13:44:41.812Z,1.91
2023-03-11T13:47:27.545Z,1.92
2023-03-11T13:50:29.704Z,1.89
2023-03-11T13:53:25.820Z,1.98
2023-03-11T13:56:26.822Z,1.91
2023-03-11T13:59:36.409Z,2.42
2023-03-11T14:02:24.374Z,2.78
2023-03-11T14:05:17.465Z,2.39
2023-03-11T14:08:19.514Z,2.39
2023-03-11T14:11:16.715Z,2.07
2023-03-11T14:14:01.871Z,2.14
2023-03-11T14:16:45.632Z,2.53
2023-03-11T14:19:29.133Z,2.74
2023-03-11T14:22:16.036Z,2.77
2023-03-11T14:25:08.927Z,3.05
2023-03-11T14:28:02.489Z,2.98
2023-03-11T14:31:01.964Z,2.78
2023-03-11T14:33:56.443Z,2.65
2023-03-11T14:36:52.621Z,2.67
2023-03-11T14:39:39.914Z,2.46
2023-03-11T14:42:23.194Z,2.64
2023-03-11T14:45:16.400Z,2.63
2023-03-11T14:48:10.913Z,2.67
2023-03-11T14:50:59.904Z,2.68
2023-03-11T14:53:52.926Z,2.51
2023-03-11T14:56:43.217Z,2.62
2023-03-11T14:59:35.015Z,3.06
2023-03-11T15:03:00.088Z,2.82
2023-03-11T15:05:56.576Z,3.03
2023-03-11T15:08:54.864Z,2.94
2023-03-11T15:12:05.232Z,2.32
2023-03-11T15:14:51.503Z,2.16
2023-03-11T15:17:41.287Z,2.05
2023-03-11T15:20:31.122Z,2.13
2023-03-11T15:23:22.850Z,1.92
2023-03-11T15:26:07.146Z,1.98
2023-03-11T15:29:12.994Z,2.11
2023-03-11T15:31:57.378Z,2.16
2023-03-11T15:34:41.212Z,2.08
2023-03-11T15:37:26.630Z,2.02
2023-03-11T15:40:30.069Z,2.13
2023-03-11T15:43:27.305Z,2.24
2023-03-11T15:46:11.244Z,2.19
2023-03-11T15:48:54.740Z,2.29
2023-03-11T15:51:38.243Z,2.15
2023-03-11T15:54:21.639Z,2.22
2023-03-11T15:57:14.633Z,2.12
2023-03-11T16:00:01.144Z,2.14
2023-03-11T16:02:45.014Z,2.03
2023-03-11T16:05:29.212Z,2.24
2023-03-11T16:08:13.579Z,2.00
2023-03-11T16:11:09.862Z,2.04
2023-03-11T16:13:53.265Z,2.16
2023-03-11T16:16:36.668Z,2.34
2023-03-11T16:19:20.171Z,2.21
2023-03-11T16:22:04.755Z,2.18
2023-03-11T16:24:53.437Z,2.16
2023-03-11T16:27:36.870Z,2.11
2023-03-11T16:30:20.782Z,2.17
2023-03-11T16:33:05.259Z,2.05
2023-03-11T16:35:49.364Z,2.02
2023-03-11T16:38:52.353Z,1.86
2023-03-11T16:41:48.731Z,1.98
2023-03-11T16:44:34.155Z,1.81
2023-03-11T16:47:18.234Z,1.96
2023-03-11T16:50:01.771Z,1.72
2023-03-11T16:52:45.180Z,1.67
2023-03-11T16:55:30.726Z,1.67
2023-03-11T16:58:15.324Z,1.74
2023-03-11T17:00:59.167Z,1.84
2023-03-11T17:03:44.959Z,1.94
2023-03-11T17:06:34.479Z,1.69
2023-03-11T17:09:30.278Z,1.88
2023-03-11T17:12:23.873Z,1.88
2023-03-11T17:15:29.556Z,2.12
2023-03-11T17:18:39.705Z,1.91
2023-03-11T17:21:39.688Z,1.70
2023-03-11T17:24:39.424Z,2.08
2023-03-11T17:27:46.515Z,1.74
2023-03-11T17:31:05.254Z,1.86
2023-03-11T17:34:00.693Z,1.79
2023-03-11T17:36:47.844Z,1.82
2023-03-11T17:39:42.718Z,1.82
2023-03-11T17:42:29.406Z,1.90
2023-03-11T17:45:18.714Z,1.86
2023-03-11T17:48:05.949Z,1.70
2023-03-11T17:50:53.088Z,1.57
2023-03-11T17:53:43.289Z,1.71
2023-03-11T17:56:30.240Z,1.58
2023-03-11T17:59:17.847Z,1.76
2023-03-11T18:02:03.541Z,1.60
2023-03-11T18:04:54.255Z,1.47
2023-03-11T18:07:39.984Z,1.60
2023-03-11T18:10:24.644Z,1.40
2023-03-11T18:13:10.956Z,1.50
2023-03-11T18:16:10.730Z,1.53
2023-03-11T18:18:57.556Z,1.56
2023-03-11T18:21:41.820Z,1.54
2023-03-11T18:27:47.529Z,1.63
2023-03-11T18:30:32.314Z,1.50
2023-03-11T18:33:16.909Z,1.49
2023-03-11T18:36:11.619Z,1.14
2023-03-11T18:38:59.313Z,1.07
2023-03-11T18:41:43.914Z,1.06
2023-03-11T18:44:28.314Z,0.82
2023-03-11T18:47:12.823Z,1.06
2023-03-11T18:49:57.041Z,1.03
2023-03-11T18:52:41.475Z,0.96
2023-03-11T18:55:25.818Z,0.87
2023-03-11T18:58:13.019Z,0.79
2023-03-11T19:01:09.236Z,0.70
2023-03-11T19:04:02.173Z,0.82
2023-03-11T19:06:46.510Z,0.73
2023-03-11T19:09:30.864Z,0.69
2023-03-11T19:15:42.830Z,0.67
2023-03-11T19:18:27.519Z,0.84
2023-03-11T19:21:14.732Z,0.71
2023-03-11T19:27:06.756Z,0.58
2023-03-11T19:32:55.570Z,0.64
2023-03-11T19:35:39.630Z,0.52
2023-03-11T19:38:24.299Z,0.57
2023-03-11T19:41:15.230Z,0.43
2023-03-11T19:43:58.783Z,0.27
2023-03-11T19:46:42.315Z,0.24
2023-03-11T19:49:26.143Z,0.37
2023-03-11T19:52:09.989Z,0.38
2023-03-11T19:54:53.487Z,0.32
2023-03-11T19:57:37.126Z,0.21
2023-03-11T20:00:21.311Z,0.27
2023-03-11T20:03:04.887Z,0.43
2023-03-11T20:05:52.609Z,0.45
2023-03-11T20:08:37.383Z,0.18
2023-03-11T20:11:21.057Z,0.32
2023-03-11T20:14:06.289Z,0.37
2023-03-11T20:16:50.465Z,0.42
2023-03-11T20:19:35.749Z,0.07
2023-03-11T20:22:20.299Z,0.15
2023-03-11T20:25:04.800Z,0.11
2023-03-11T20:27:48.382Z,0.17
2023-03-11T20:30:32.123Z,0.06
2023-03-11T20:33:15.611Z,0.26
2023-03-11T20:36:07.990Z,0.23
2023-03-11T20:38:55.150Z,0.29
2023-03-11T20:41:40.853Z,0.35
2023-03-11T20:44:24.360Z,0.26
2023-03-11T20:47:07.975Z,0.23
2023-03-11T20:49:51.800Z,0.29
2023-03-11T20:52:35.850Z,0.40
2023-03-11T20:55:19.592Z,0.38
2023-03-11T20:58:03.090Z,0.19
2023-03-11T21:00:46.710Z,0.24
2023-03-11T21:03:30.639Z,0.13
2023-03-11T21:06:22.732Z,0.22
2023-03-11T21:09:13.363Z,0.30
2023-03-11T21:11:56.950Z,0.15
2023-03-11T21:14:40.817Z,0.13
2023-03-11T21:17:24.310Z,0.30
2023-03-11T21:20:08.334Z,0.13
2023-03-11T21:22:52.152Z,0.13
2023-03-11T21:25:39.194Z,0.15
2023-03-11T21:28:22.769Z,0.09
2023-03-11T21:31:13.697Z,0.20
2023-03-11T21:33:59.756Z,0.28
2023-03-11T21:36:43.391Z,0.18
2023-03-11T21:39:26.961Z,0.21
2023-03-11T21:42:10.553Z,0.13
2023-03-11T21:44:54.304Z,0.19
2023-03-11T21:47:38.112Z,0.01
2023-03-11T21:50:21.801Z,0.18
2023-03-11T21:53:06.314Z,0.10
2023-03-11T21:55:52.164Z,0.15
2023-03-11T21:58:36.232Z,0.04
2023-03-11T22:01:20.437Z,0.06
2023-03-11T22:04:04.878Z,-0.02
2023-03-11T22:06:48.629Z,-0.10
2023-03-11T22:09:32.878Z,-0.02
2023-03-11T22:12:16.651Z,-0.17
2023-03-11T22:15:00.464Z,-0.17
2023-03-11T22:17:44.315Z,-0.07
2023-03-11T22:20:28.160Z,-0.14
2023-03-11T22:23:11.796Z,-0.09
2023-03-11T22:25:55.689Z,0.07
2023-03-11T22:28:39.271Z,-0.05
2023-03-11T22:31:23.181Z,-0.20
2023-03-11T22:34:06.850Z,0.02
2023-03-11T22:36:50.836Z,-0.01
2023-03-11T22:39:34.540Z,-0.10
2023-03-11T22:42:19.264Z,-0.08
2023-03-11T22:45:05.495Z,-0.07
2023-03-11T22:47:50.691Z,-0.17
2023-03-11T22:50:35.079Z,-0.10
2023-03-11T22:57:42.888Z,-0.06
2023-03-11T23:00:26.668Z,-0.06
2023-03-11T23:03:12.775Z,0.02
2023-03-11T23:06:02.288Z,-0.06
2023-03-11T23:08:47.826Z,-0.04
2023-03-11T23:11:33.939Z,-0.01
2023-03-11T23:14:18.471Z,-0.18
2023-03-11T23:17:02.636Z,-0.04
2023-03-11T23:19:46.337Z,-0.17
2023-03-11T23:22:30.222Z,-0.33
2023-03-11T23:25:17.219Z,-0.12
2023-03-11T23:28:04.479Z,-0.14
2023-03-11T23:30:48.101Z,-0.13
2023-03-11T23:33:31.645Z,-0.14
2023-03-11T23:36:20.456Z,-0.41
2023-03-11T23:39:03.975Z,-0.45
2023-03-11T23:41:47.367Z,-0.42
2023-03-11T23:44:30.884Z,-0.44
2023-03-11T23:47:14.331Z,-0.26
2023-03-11T23:49:57.891Z,-0.44
2023-03-11T23:52:41.848Z,-0.51
2023-03-11T23:55:25.270Z,-0.58
2023-03-11T23:58:10.659Z,-0.49
